sensor_id;sensor_type;location;lat;lon;timestamp;pressure;altitude;pressure_sealevel;temperature;humidity
61537;BME280;48695;53.480;-6.300;2023-02-18T00:01:52;101013.53;;;13.31;70.42
61537;BME280;48695;53.480;-6.300;2023-02-18T00:04:18;101031.00;;;13.32;70.64
61537;BME280;48695;53.480;-6.300;2023-02-18T00:06:43;101016.22;;;13.30;70.34
61537;BME280;48695;53.480;-6.300;2023-02-18T00:09:09;101005.06;;;13.23;70.44
61537;BME280;48695;53.480;-6.300;2023-02-18T00:11:36;101000.59;;;13.25;70.85
61537;BME280;48695;53.480;-6.300;2023-02-18T00:14:04;101012.03;;;13.22;70.69
61537;BME280;48695;53.480;-6.300;2023-02-18T00:16:29;100991.97;;;13.21;70.26
61537;BME280;48695;53.480;-6.300;2023-02-18T00:19:05;100995.53;;;13.17;71.07
61537;BME280;48695;53.480;-6.300;2023-02-18T00:21:32;100997.44;;;13.12;71.40
61537;BME280;48695;53.480;-6.300;2023-02-18T00:23:58;101001.06;;;13.08;71.74
61537;BME280;48695;53.480;-6.300;2023-02-18T00:26:24;101004.66;;;13.04;71.94
61537;BME280;48695;53.480;-6.300;2023-02-18T00:28:50;100994.25;;;13.01;71.95
61537;BME280;48695;53.480;-6.300;2023-02-18T00:31:24;101036.22;;;13.01;71.72
61537;BME280;48695;53.480;-6.300;2023-02-18T00:33:50;100980.53;;;12.91;71.39
61537;BME280;48695;53.480;-6.300;2023-02-18T00:36:17;100985.78;;;12.93;71.87
61537;BME280;48695;53.480;-6.300;2023-02-18T00:38:47;100988.66;;;12.82;72.20
61537;BME280;48695;53.480;-6.300;2023-02-18T00:41:13;100989.25;;;12.92;72.50
61537;BME280;48695;53.480;-6.300;2023-02-18T00:43:38;100996.31;;;12.90;72.48
61537;BME280;48695;53.480;-6.300;2023-02-18T00:46:04;100965.47;;;12.68;72.70
61537;BME280;48695;53.480;-6.300;2023-02-18T00:48:30;100991.16;;;12.87;72.75
61537;BME280;48695;53.480;-6.300;2023-02-18T00:50:55;101015.59;;;12.89;72.65
61537;BME280;48695;53.480;-6.300;2023-02-18T00:53:21;100986.88;;;12.84;73.03
61537;BME280;48695;53.480;-6.300;2023-02-18T00:55:47;100992.91;;;12.86;73.32
61537;BME280;48695;53.480;-6.300;2023-02-18T00:58:13;100978.97;;;12.86;72.85
61537;BME280;48695;53.480;-6.300;2023-02-18T01:00:38;100985.16;;;12.83;73.28
61537;BME280;48695;53.480;-6.300;2023-02-18T01:03:04;100980.66;;;12.87;73.53
61537;BME280;48695;53.480;-6.300;2023-02-18T01:05:31;100972.81;;;12.87;73.49
61537;BME280;48695;53.480;-6.300;2023-02-18T01:07:57;100976.34;;;12.86;73.33
61537;BME280;48695;53.480;-6.300;2023-02-18T01:10:22;100972.00;;;12.85;73.64
61537;BME280;48695;53.480;-6.300;2023-02-18T01:12:48;100969.44;;;12.83;73.53
61537;BME280;48695;53.480;-6.300;2023-02-18T01:15:14;100966.75;;;12.85;73.53
61537;BME280;48695;53.480;-6.300;2023-02-18T01:17:40;100967.63;;;12.85;73.69
61537;BME280;48695;53.480;-6.300;2023-02-18T01:20:07;100964.19;;;12.83;73.75
61537;BME280;48695;53.480;-6.300;2023-02-18T01:22:32;100968.47;;;12.86;74.14
61537;BME280;48695;53.480;-6.300;2023-02-18T01:24:58;100959.16;;;12.76;74.09
61537;BME280;48695;53.480;-6.300;2023-02-18T01:27:23;100965.81;;;12.87;74.28
61537;BME280;48695;53.480;-6.300;2023-02-18T01:29:49;100971.03;;;12.87;74.61
61537;BME280;48695;53.480;-6.300;2023-02-18T01:32:14;100964.00;;;12.89;74.43
61537;BME280;48695;53.480;-6.300;2023-02-18T01:34:40;100963.06;;;12.92;74.56
61537;BME280;48695;53.480;-6.300;2023-02-18T01:37:05;100930.31;;;12.76;74.62
61537;BME280;48695;53.480;-6.300;2023-02-18T01:39:30;100959.44;;;12.96;75.06
61537;BME280;48695;53.480;-6.300;2023-02-18T01:41:56;100982.06;;;13.00;74.89
61537;BME280;48695;53.480;-6.300;2023-02-18T01:44:25;100960.09;;;13.04;75.03
61537;BME280;48695;53.480;-6.300;2023-02-18T01:46:51;100947.84;;;13.05;75.35
61537;BME280;48695;53.480;-6.300;2023-02-18T01:49:22;100973.22;;;13.04;75.34
61537;BME280;48695;53.480;-6.300;2023-02-18T01:52:25;100962.63;;;13.07;75.59
61537;BME280;48695;53.480;-6.300;2023-02-18T01:54:49;100963.44;;;13.09;75.83
61537;BME280;48695;53.480;-6.300;2023-02-18T01:57:35;100965.22;;;13.09;75.32
61537;BME280;48695;53.480;-6.300;2023-02-18T02:00:13;100967.00;;;13.07;75.91
61537;BME280;48695;53.480;-6.300;2023-02-18T02:02:44;100963.53;;;13.06;75.98
61537;BME280;48695;53.480;-6.300;2023-02-18T02:05:10;100950.41;;;13.06;76.16
61537;BME280;48695;53.480;-6.300;2023-02-18T02:07:38;100979.25;;;13.06;76.14
61537;BME280;48695;53.480;-6.300;2023-02-18T02:10:05;100961.81;;;13.05;76.33
61537;BME280;48695;53.480;-6.300;2023-02-18T02:15:54;100972.16;;;13.10;76.33
61537;BME280;48695;53.480;-6.300;2023-02-18T02:23:59;100966.06;;;13.09;75.88
61537;BME280;48695;53.480;-6.300;2023-02-18T02:31:59;100990.59;;;13.07;76.55
61537;BME280;48695;53.480;-6.300;2023-02-18T02:34:50;100971.41;;;13.06;77.00
61537;BME280;48695;53.480;-6.300;2023-02-18T02:40:24;100962.72;;;13.04;77.02
61537;BME280;48695;53.480;-6.300;2023-02-18T02:43:21;100958.28;;;13.06;77.12
61537;BME280;48695;53.480;-6.300;2023-02-18T02:46:17;100960.84;;;13.09;77.34
61537;BME280;48695;53.480;-6.300;2023-02-18T02:48:48;100970.47;;;13.09;76.70
61537;BME280;48695;53.480;-6.300;2023-02-18T02:51:25;100981.16;;;13.01;77.09
61537;BME280;48695;53.480;-6.300;2023-02-18T02:53:54;100981.88;;;13.06;77.25
61537;BME280;48695;53.480;-6.300;2023-02-18T02:56:32;100966.16;;;13.06;77.43
61537;BME280;48695;53.480;-6.300;2023-02-18T02:59:03;100985.34;;;13.08;77.75
61537;BME280;48695;53.480;-6.300;2023-02-18T03:07:32;100976.44;;;13.12;77.26
61537;BME280;48695;53.480;-6.300;2023-02-18T03:10:16;101014.91;;;13.13;77.46
61537;BME280;48695;53.480;-6.300;2023-02-18T03:21:51;101008.81;;;13.11;76.42
61537;BME280;48695;53.480;-6.300;2023-02-18T03:24:28;101007.25;;;13.06;76.30
61537;BME280;48695;53.480;-6.300;2023-02-18T03:27:11;101002.97;;;13.03;76.11
61537;BME280;48695;53.480;-6.300;2023-02-18T03:29:39;100973.84;;;12.81;76.00
61537;BME280;48695;53.480;-6.300;2023-02-18T03:32:09;101025.78;;;12.99;75.90
61537;BME280;48695;53.480;-6.300;2023-02-18T03:34:40;101003.97;;;12.97;75.82
61537;BME280;48695;53.480;-6.300;2023-02-18T03:37:07;101010.16;;;12.95;75.58
61537;BME280;48695;53.480;-6.300;2023-02-18T03:39:34;101005.84;;;12.92;75.38
61537;BME280;48695;53.480;-6.300;2023-02-18T03:42:00;100984.38;;;12.80;75.14
61537;BME280;48695;53.480;-6.300;2023-02-18T03:44:26;101001.75;;;12.84;75.04
61537;BME280;48695;53.480;-6.300;2023-02-18T03:46:52;100994.78;;;12.83;74.82
61537;BME280;48695;53.480;-6.300;2023-02-18T03:49:17;101001.00;;;12.79;74.87
61537;BME280;48695;53.480;-6.300;2023-02-18T03:51:43;100996.75;;;12.75;75.09
61537;BME280;48695;53.480;-6.300;2023-02-18T03:54:09;100974.06;;;12.73;75.16
61537;BME280;48695;53.480;-6.300;2023-02-18T03:56:36;101007.34;;;12.70;74.89
61537;BME280;48695;53.480;-6.300;2023-02-18T03:59:01;100999.56;;;12.67;74.74
61537;BME280;48695;53.480;-6.300;2023-02-18T04:01:27;101003.94;;;12.66;75.01
61537;BME280;48695;53.480;-6.300;2023-02-18T04:03:53;100994.41;;;12.64;74.85
61537;BME280;48695;53.480;-6.300;2023-02-18T04:06:20;100991.91;;;12.59;74.81
61537;BME280;48695;53.480;-6.300;2023-02-18T04:08:45;100983.97;;;12.62;74.42
61537;BME280;48695;53.480;-6.300;2023-02-18T04:11:11;100991.91;;;12.59;75.00
61537;BME280;48695;53.480;-6.300;2023-02-18T04:13:37;100932.06;;;12.44;75.04
61537;BME280;48695;53.480;-6.300;2023-02-18T04:16:03;101004.19;;;12.57;74.99
61537;BME280;48695;53.480;-6.300;2023-02-18T04:18:28;101011.16;;;12.58;74.83
61537;BME280;48695;53.480;-6.300;2023-02-18T04:20:53;101018.19;;;12.56;74.53
61537;BME280;48695;53.480;-6.300;2023-02-18T04:23:19;101010.28;;;12.58;74.83
61537;BME280;48695;53.480;-6.300;2023-02-18T04:25:44;101009.50;;;12.54;74.89
61537;BME280;48695;53.480;-6.300;2023-02-18T04:28:12;100997.28;;;12.55;74.51
61537;BME280;48695;53.480;-6.300;2023-02-18T04:30:38;100996.47;;;12.53;74.60
61537;BME280;48695;53.480;-6.300;2023-02-18T04:33:03;101006.94;;;12.53;74.67
61537;BME280;48695;53.480;-6.300;2023-02-18T04:35:29;100995.50;;;12.55;74.19
61537;BME280;48695;53.480;-6.300;2023-02-18T04:37:54;101005.19;;;12.52;74.23
61537;BME280;48695;53.480;-6.300;2023-02-18T04:40:20;101006.16;;;12.49;73.88
61537;BME280;48695;53.480;-6.300;2023-02-18T04:42:45;101018.44;;;12.47;74.25
61537;BME280;48695;53.480;-6.300;2023-02-18T04:45:10;101019.34;;;12.44;74.00
61537;BME280;48695;53.480;-6.300;2023-02-18T04:47:36;101005.03;;;12.24;73.95
61537;BME280;48695;53.480;-6.300;2023-02-18T04:50:02;101041.50;;;12.33;73.96
61537;BME280;48695;53.480;-6.300;2023-02-18T04:52:28;101011.19;;;12.23;74.07
61537;BME280;48695;53.480;-6.300;2023-02-18T04:54:53;101037.16;;;12.30;74.03
61537;BME280;48695;53.480;-6.300;2023-02-18T04:57:18;101039.78;;;12.32;74.00
61537;BME280;48695;53.480;-6.300;2023-02-18T04:59:44;101042.44;;;12.29;73.95
61537;BME280;48695;53.480;-6.300;2023-02-18T05:02:09;101030.22;;;12.29;74.18
61537;BME280;48695;53.480;-6.300;2023-02-18T05:04:35;101044.22;;;12.28;74.06
61537;BME280;48695;53.480;-6.300;2023-02-18T05:07:00;101056.41;;;12.29;74.00
61537;BME280;48695;53.480;-6.300;2023-02-18T05:09:25;101032.88;;;12.28;74.12
61537;BME280;48695;53.480;-6.300;2023-02-18T05:11:51;101036.31;;;12.30;73.98
61537;BME280;48695;53.480;-6.300;2023-02-18T05:14:17;101033.66;;;12.31;73.94
61537;BME280;48695;53.480;-6.300;2023-02-18T05:16:43;100976.09;;;11.94;73.77
61537;BME280;48695;53.480;-6.300;2023-02-18T05:19:11;101031.22;;;12.24;73.78
61537;BME280;48695;53.480;-6.300;2023-02-18T05:21:38;101017.16;;;12.28;73.36
61537;BME280;48695;53.480;-6.300;2023-02-18T05:24:04;101013.88;;;12.19;73.58
61537;BME280;48695;53.480;-6.300;2023-02-18T05:26:29;101024.13;;;12.29;73.67
61537;BME280;48695;53.480;-6.300;2023-02-18T05:28:54;101020.69;;;12.27;73.34
61537;BME280;48695;53.480;-6.300;2023-02-18T05:31:21;100981.03;;;12.06;73.67
61537;BME280;48695;53.480;-6.300;2023-02-18T05:33:47;100993.06;;;12.13;73.18
61537;BME280;48695;53.480;-6.300;2023-02-18T05:36:12;101016.31;;;12.26;73.41
61537;BME280;48695;53.480;-6.300;2023-02-18T05:38:37;101003.47;;;12.16;73.05
61537;BME280;48695;53.480;-6.300;2023-02-18T05:41:03;101001.63;;;12.22;73.08
61537;BME280;48695;53.480;-6.300;2023-02-18T05:43:28;100975.94;;;12.00;73.36
61537;BME280;48695;53.480;-6.300;2023-02-18T05:45:54;101000.88;;;12.15;73.24
61537;BME280;48695;53.480;-6.300;2023-02-18T05:48:19;101003.50;;;12.15;73.05
61537;BME280;48695;53.480;-6.300;2023-02-18T05:50:45;101017.53;;;12.12;73.75
61537;BME280;48695;53.480;-6.300;2023-02-18T05:53:10;101008.84;;;12.10;73.20
61537;BME280;48695;53.480;-6.300;2023-02-18T05:55:36;101008.84;;;12.10;73.37
61537;BME280;48695;53.480;-6.300;2023-02-18T05:58:03;101012.44;;;12.06;73.37
61537;BME280;48695;53.480;-6.300;2023-02-18T06:00:29;101009.81;;;12.06;73.45
61537;BME280;48695;53.480;-6.300;2023-02-18T06:02:56;101008.19;;;12.02;73.29
61537;BME280;48695;53.480;-6.300;2023-02-18T06:05:21;101018.63;;;12.04;73.53
61537;BME280;48695;53.480;-6.300;2023-02-18T06:07:47;101005.56;;;12.02;73.15
61537;BME280;48695;53.480;-6.300;2023-02-18T06:10:12;101016.06;;;12.01;73.50
61537;BME280;48695;53.480;-6.300;2023-02-18T06:12:38;100937.75;;;11.54;73.64
61537;BME280;48695;53.480;-6.300;2023-02-18T06:15:04;101010.91;;;11.98;73.61
61537;BME280;48695;53.480;-6.300;2023-02-18T06:17:30;101016.16;;;11.96;73.31
61537;BME280;48695;53.480;-6.300;2023-02-18T06:19:55;101017.91;;;11.95;73.32
61537;BME280;48695;53.480;-6.300;2023-02-18T06:22:20;101000.56;;;11.93;73.35
61537;BME280;48695;53.480;-6.300;2023-02-18T06:24:46;100999.66;;;11.94;73.17
61537;BME280;48695;53.480;-6.300;2023-02-18T06:27:12;101024.09;;;11.93;73.35
61537;BME280;48695;53.480;-6.300;2023-02-18T06:29:37;101014.44;;;11.95;73.50
61537;BME280;48695;53.480;-6.300;2023-02-18T06:32:03;101030.09;;;11.98;73.50
61537;BME280;48695;53.480;-6.300;2023-02-18T06:34:28;101020.69;;;11.89;73.38
61537;BME280;48695;53.480;-6.300;2023-02-18T06:36:53;101029.94;;;12.04;73.75
61537;BME280;48695;53.480;-6.300;2023-02-18T06:39:19;101033.38;;;12.06;73.52
61537;BME280;48695;53.480;-6.300;2023-02-18T06:41:44;101020.47;;;11.99;73.86
61537;BME280;48695;53.480;-6.300;2023-02-18T06:44:10;101047.34;;;12.05;73.90
61537;BME280;48695;53.480;-6.300;2023-02-18T06:46:36;101031.00;;;11.95;74.08
61537;BME280;48695;53.480;-6.300;2023-02-18T06:49:02;101038.50;;;12.12;73.93
61537;BME280;48695;53.480;-6.300;2023-02-18T06:51:27;101035.13;;;12.07;74.53
61537;BME280;48695;53.480;-6.300;2023-02-18T06:53:53;101044.63;;;12.10;74.29
61537;BME280;48695;53.480;-6.300;2023-02-18T06:56:18;101030.00;;;12.01;74.11
61537;BME280;48695;53.480;-6.300;2023-02-18T06:58:43;101023.09;;;11.99;74.05
61537;BME280;48695;53.480;-6.300;2023-02-18T07:01:09;101043.88;;;12.05;74.18
61537;BME280;48695;53.480;-6.300;2023-02-18T07:03:34;101043.97;;;12.02;74.41
61537;BME280;48695;53.480;-6.300;2023-02-18T07:06:00;101042.28;;;11.99;74.43
61537;BME280;48695;53.480;-6.300;2023-02-18T07:08:25;101057.16;;;11.97;74.27
61537;BME280;48695;53.480;-6.300;2023-02-18T07:10:51;101059.03;;;11.92;74.11
61537;BME280;48695;53.480;-6.300;2023-02-18T07:13:16;101063.41;;;11.90;74.53
61537;BME280;48695;53.480;-6.300;2023-02-18T07:15:42;101008.50;;;11.48;74.51
61537;BME280;48695;53.480;-6.300;2023-02-18T07:18:07;101068.94;;;11.75;74.13
61537;BME280;48695;53.480;-6.300;2023-02-18T07:20:33;101078.44;;;11.82;74.54
61537;BME280;48695;53.480;-6.300;2023-02-18T07:22:58;101090.66;;;11.80;74.59
61537;BME280;48695;53.480;-6.300;2023-02-18T07:25:24;101088.88;;;11.80;74.29
61537;BME280;48695;53.480;-6.300;2023-02-18T07:27:50;101077.75;;;11.70;74.27
61537;BME280;48695;53.480;-6.300;2023-02-18T07:30:17;101096.88;;;11.74;74.24
61537;BME280;48695;53.480;-6.300;2023-02-18T07:32:43;101083.84;;;11.73;74.70
61537;BME280;48695;53.480;-6.300;2023-02-18T07:35:10;101100.28;;;11.78;74.12
61537;BME280;48695;53.480;-6.300;2023-02-18T07:37:37;101099.59;;;11.69;74.22
61537;BME280;48695;53.480;-6.300;2023-02-18T07:40:02;101097.06;;;11.66;74.44
61537;BME280;48695;53.480;-6.300;2023-02-18T07:42:28;101111.63;;;11.78;74.28
61537;BME280;48695;53.480;-6.300;2023-02-18T07:44:53;101107.28;;;11.76;74.42
61537;BME280;48695;53.480;-6.300;2023-02-18T07:47:19;101111.66;;;11.75;74.58
61537;BME280;48695;53.480;-6.300;2023-02-18T07:49:45;101091.91;;;11.60;74.50
61537;BME280;48695;53.480;-6.300;2023-02-18T07:52:11;101098.59;;;11.77;74.41
61537;BME280;48695;53.480;-6.300;2023-02-18T07:54:37;101119.53;;;11.75;74.57
61537;BME280;48695;53.480;-6.300;2023-02-18T07:57:02;101125.53;;;11.80;74.34
61537;BME280;48695;53.480;-6.300;2023-02-18T07:59:28;101123.09;;;11.73;74.24
61537;BME280;48695;53.480;-6.300;2023-02-18T08:01:53;101102.34;;;11.63;74.24
61537;BME280;48695;53.480;-6.300;2023-02-18T08:04:19;101140.25;;;11.86;74.12
61537;BME280;48695;53.480;-6.300;2023-02-18T08:06:46;101144.53;;;11.90;74.66
61537;BME280;48695;53.480;-6.300;2023-02-18T08:09:13;101134.31;;;11.78;74.50
61537;BME280;48695;53.480;-6.300;2023-02-18T08:11:39;101146.25;;;11.92;74.41
61537;BME280;48695;53.480;-6.300;2023-02-18T08:14:05;101159.25;;;11.97;74.11
61537;BME280;48695;53.480;-6.300;2023-02-18T08:16:30;101154.78;;;12.01;74.46
61537;BME280;48695;53.480;-6.300;2023-02-18T08:18:56;101159.09;;;12.03;74.36
61537;BME280;48695;53.480;-6.300;2023-02-18T08:21:23;101156.41;;;12.06;74.46
61537;BME280;48695;53.480;-6.300;2023-02-18T08:23:49;101143.53;;;11.97;74.25
61537;BME280;48695;53.480;-6.300;2023-02-18T08:26:15;101167.63;;;12.13;74.05
61537;BME280;48695;53.480;-6.300;2023-02-18T08:28:42;101154.44;;;12.17;73.82
61537;BME280;48695;53.480;-6.300;2023-02-18T08:31:18;101163.16;;;12.18;74.06
61537;BME280;48695;53.480;-6.300;2023-02-18T08:33:44;101156.22;;;12.15;74.12
61537;BME280;48695;53.480;-6.300;2023-02-18T08:36:09;101155.41;;;12.13;73.79
61537;BME280;48695;53.480;-6.300;2023-02-18T08:38:34;101107.22;;;11.82;73.83
61537;BME280;48695;53.480;-6.300;2023-02-18T08:41:05;101174.28;;;12.26;74.36
61537;BME280;48695;53.480;-6.300;2023-02-18T08:43:30;101153.78;;;12.06;74.16
61537;BME280;48695;53.480;-6.300;2023-02-18T08:45:57;101183.03;;;12.27;74.35
61537;BME280;48695;53.480;-6.300;2023-02-18T08:48:22;101164.16;;;12.12;74.30
61537;BME280;48695;53.480;-6.300;2023-02-18T08:50:48;101202.13;;;12.32;74.05
61537;BME280;48695;53.480;-6.300;2023-02-18T08:53:14;101196.06;;;12.30;73.90
61537;BME280;48695;53.480;-6.300;2023-02-18T08:55:40;101190.72;;;12.34;73.93
61537;BME280;48695;53.480;-6.300;2023-02-18T08:58:05;101207.22;;;12.38;73.62
61537;BME280;48695;53.480;-6.300;2023-02-18T09:00:31;101201.09;;;12.39;73.62
61537;BME280;48695;53.480;-6.300;2023-02-18T09:02:56;101217.63;;;12.41;73.76
61537;BME280;48695;53.480;-6.300;2023-02-18T09:05:22;101215.75;;;12.46;73.51
61537;BME280;48695;53.480;-6.300;2023-02-18T09:07:47;101219.25;;;12.46;73.48
61537;BME280;48695;53.480;-6.300;2023-02-18T09:10:12;101217.50;;;12.47;73.25
61537;BME280;48695;53.480;-6.300;2023-02-18T09:12:38;101213.91;;;12.51;73.06
61537;BME280;48695;53.480;-6.300;2023-02-18T09:15:04;101217.38;;;12.53;73.03
61537;BME280;48695;53.480;-6.300;2023-02-18T09:17:29;101208.53;;;12.57;72.85
61537;BME280;48695;53.480;-6.300;2023-02-18T09:19:55;101215.41;;;12.61;72.92
61537;BME280;48695;53.480;-6.300;2023-02-18T09:22:20;101210.16;;;12.63;73.00
61537;BME280;48695;53.480;-6.300;2023-02-18T09:24:46;101215.34;;;12.64;73.70
61537;BME280;48695;53.480;-6.300;2023-02-18T09:27:11;101224.69;;;12.76;73.85
61537;BME280;48695;53.480;-6.300;2023-02-18T09:29:38;101215.00;;;12.80;73.44
61537;BME280;48695;53.480;-6.300;2023-02-18T09:32:05;101226.69;;;13.02;73.34
61537;BME280;48695;53.480;-6.300;2023-02-18T09:34:30;101228.44;;;13.03;72.25
61537;BME280;48695;53.480;-6.300;2023-02-18T09:36:56;101232.56;;;13.12;72.21
61537;BME280;48695;53.480;-6.300;2023-02-18T09:39:22;101211.91;;;12.99;72.22
61537;BME280;48695;53.480;-6.300;2023-02-18T09:41:53;101222.94;;;13.12;72.17
61537;BME280;48695;53.480;-6.300;2023-02-18T09:45:00;101228.13;;;13.15;72.27
61537;BME280;48695;53.480;-6.300;2023-02-18T09:47:34;101241.28;;;13.14;72.21
61537;BME280;48695;53.480;-6.300;2023-02-18T09:50:19;101245.56;;;13.16;72.18
61537;BME280;48695;53.480;-6.300;2023-02-18T09:52:46;101234.53;;;13.04;72.09
61537;BME280;48695;53.480;-6.300;2023-02-18T09:55:26;101244.66;;;13.19;71.83
61537;BME280;48695;53.480;-6.300;2023-02-18T09:57:54;101186.91;;;12.85;71.64
61537;BME280;48695;53.480;-6.300;2023-02-18T10:00:24;101245.44;;;13.22;72.05
61537;BME280;48695;53.480;-6.300;2023-02-18T10:02:57;101255.94;;;13.22;71.61
61537;BME280;48695;53.480;-6.300;2023-02-18T10:05:25;101244.56;;;13.23;71.75
61537;BME280;48695;53.480;-6.300;2023-02-18T10:07:54;101250.63;;;13.26;71.99
61537;BME280;48695;53.480;-6.300;2023-02-18T10:13:01;101258.44;;;13.27;72.24
61537;BME280;48695;53.480;-6.300;2023-02-18T10:15:29;101268.91;;;13.29;72.06
61537;BME280;48695;53.480;-6.300;2023-02-18T10:17:56;101261.00;;;13.30;72.10
61537;BME280;48695;53.480;-6.300;2023-02-18T10:20:25;101254.00;;;13.31;71.54
61537;BME280;48695;53.480;-6.300;2023-02-18T10:22:53;101253.19;;;13.27;72.13
61537;BME280;48695;53.480;-6.300;2023-02-18T10:25:22;101231.47;;;13.22;71.94
61537;BME280;48695;53.480;-6.300;2023-02-18T10:27:50;101239.22;;;13.27;71.82
61537;BME280;48695;53.480;-6.300;2023-02-18T10:32:44;101266.03;;;13.38;71.67
61537;BME280;48695;53.480;-6.300;2023-02-18T10:35:30;101254.56;;;13.43;71.78
61537;BME280;48695;53.480;-6.300;2023-02-18T10:50:47;101262.44;;;13.76;71.43
61537;BME280;48695;53.480;-6.300;2023-02-18T10:55:46;101259.34;;;13.93;70.76
61537;BME280;48695;53.480;-6.300;2023-02-18T11:00:49;101254.69;;;14.02;69.97
61537;BME280;48695;53.480;-6.300;2023-02-18T11:03:18;101254.50;;;14.09;70.19
61537;BME280;48695;53.480;-6.300;2023-02-18T11:05:45;101249.97;;;14.15;70.24
61537;BME280;48695;53.480;-6.300;2023-02-18T11:08:24;101257.53;;;14.26;70.61
61537;BME280;48695;53.480;-6.300;2023-02-18T11:10:50;101254.84;;;14.27;69.89
61537;BME280;48695;53.480;-6.300;2023-02-18T11:13:36;101244.84;;;14.40;70.11
61537;BME280;48695;53.480;-6.300;2023-02-18T11:16:04;101238.56;;;14.44;69.06
61537;BME280;48695;53.480;-6.300;2023-02-18T11:18:43;101230.75;;;14.43;68.66
61537;BME280;48695;53.480;-6.300;2023-02-18T11:21:30;101228.75;;;14.52;68.60
61537;BME280;48695;53.480;-6.300;2023-02-18T11:23:56;101224.47;;;14.50;68.38
61537;BME280;48695;53.480;-6.300;2023-02-18T11:26:32;101233.84;;;14.57;68.53
61537;BME280;48695;53.480;-6.300;2023-02-18T11:29:06;101225.84;;;14.62;67.82
61537;BME280;48695;53.480;-6.300;2023-02-18T11:31:44;101229.97;;;14.69;67.95
61537;BME280;48695;53.480;-6.300;2023-02-18T11:34:16;101235.25;;;14.69;67.55
61537;BME280;48695;53.480;-6.300;2023-02-18T11:36:42;101211.31;;;14.50;67.38
61537;BME280;48695;53.480;-6.300;2023-02-18T11:39:23;101234.66;;;14.59;67.36
61537;BME280;48695;53.480;-6.300;2023-02-18T11:41:54;101228.69;;;14.54;67.35
61537;BME280;48695;53.480;-6.300;2023-02-18T11:49:26;101220.69;;;14.27;69.02
61537;BME280;48695;53.480;-6.300;2023-02-18T11:51:54;101224.25;;;14.26;69.33
61537;BME280;48695;53.480;-6.300;2023-02-18T11:54:24;101233.56;;;14.37;69.68
61537;BME280;48695;53.480;-6.300;2023-02-18T11:57:13;101212.84;;;14.57;69.54
61537;BME280;48695;53.480;-6.300;2023-02-18T11:59:41;101223.06;;;14.66;68.67
61537;BME280;48695;53.480;-6.300;2023-02-18T12:10:26;101219.69;;;15.92;65.16
61537;BME280;48695;53.480;-6.300;2023-02-18T12:15:31;101225.56;;;16.46;63.80
61537;BME280;48695;53.480;-6.300;2023-02-18T12:20:58;101213.50;;;16.62;61.34
61537;BME280;48695;53.480;-6.300;2023-02-18T12:26:37;101229.88;;;16.48;61.30
61537;BME280;48695;53.480;-6.300;2023-02-18T12:29:16;101240.84;;;16.38;60.78
61537;BME280;48695;53.480;-6.300;2023-02-18T12:50:31;101249.53;;;15.15;65.92
61537;BME280;48695;53.480;-6.300;2023-02-18T12:58:19;101250.50;;;15.39;66.63
61537;BME280;48695;53.480;-6.300;2023-02-18T13:09:30;101214.88;;;15.28;65.04
61537;BME280;48695;53.480;-6.300;2023-02-18T13:14:59;101212.88;;;15.10;65.46
61537;BME280;48695;53.480;-6.300;2023-02-18T13:17:30;101216.69;;;15.01;65.36
61537;BME280;48695;53.480;-6.300;2023-02-18T13:20:47;101222.09;;;14.97;65.46
61537;BME280;48695;53.480;-6.300;2023-02-18T13:23:18;101223.28;;;14.87;64.84
61537;BME280;48695;53.480;-6.300;2023-02-18T13:25:46;101170.31;;;14.43;65.30
61537;BME280;48695;53.480;-6.300;2023-02-18T13:28:27;101215.25;;;14.63;65.18
61537;BME280;48695;53.480;-6.300;2023-02-18T13:31:06;101231.81;;;14.67;64.73
61537;BME280;48695;53.480;-6.300;2023-02-18T13:33:39;101200.41;;;14.62;65.30
61537;BME280;48695;53.480;-6.300;2023-02-18T13:39:13;101203.94;;;14.61;65.71
61537;BME280;48695;53.480;-6.300;2023-02-18T13:41:45;101198.69;;;14.61;65.59
61537;BME280;48695;53.480;-6.300;2023-02-18T13:46:57;101196.53;;;14.74;66.21
61537;BME280;48695;53.480;-6.300;2023-02-18T13:49:32;101191.13;;;14.78;65.50
61537;BME280;48695;53.480;-6.300;2023-02-18T13:52:00;101174.75;;;14.70;65.22
61537;BME280;48695;53.480;-6.300;2023-02-18T13:54:44;101177.88;;;14.82;65.03
61537;BME280;48695;53.480;-6.300;2023-02-18T13:57:16;101181.47;;;14.79;65.24
61537;BME280;48695;53.480;-6.300;2023-02-18T13:59:55;101188.59;;;14.75;65.26
61537;BME280;48695;53.480;-6.300;2023-02-18T14:05:36;101129.47;;;14.33;65.99
61537;BME280;48695;53.480;-6.300;2023-02-18T14:17:46;101157.63;;;14.57;65.70
61537;BME280;48695;53.480;-6.300;2023-02-18T14:22:48;101145.16;;;14.64;65.64
61537;BME280;48695;53.480;-6.300;2023-02-18T14:25:21;101143.28;;;14.67;65.62
61537;BME280;48695;53.480;-6.300;2023-02-18T14:27:52;101144.09;;;14.69;65.10
61537;BME280;48695;53.480;-6.300;2023-02-18T14:32:44;101137.81;;;14.73;64.45
61537;BME280;48695;53.480;-6.300;2023-02-18T14:38:31;101077.28;;;14.50;65.16
61537;BME280;48695;53.480;-6.300;2023-02-18T14:51:33;101146.53;;;14.75;64.68
61537;BME280;48695;53.480;-6.300;2023-02-18T14:54:09;101153.41;;;14.79;64.88
61537;BME280;48695;53.480;-6.300;2023-02-18T14:56:40;101143.84;;;14.77;64.30
61537;BME280;48695;53.480;-6.300;2023-02-18T14:59:11;101146.72;;;14.69;64.18
61537;BME280;48695;53.480;-6.300;2023-02-18T15:01:37;101143.09;;;14.73;64.23
61537;BME280;48695;53.480;-6.300;2023-02-18T15:04:04;101153.81;;;14.67;64.13
61537;BME280;48695;53.480;-6.300;2023-02-18T15:06:35;101155.63;;;14.65;63.62
61537;BME280;48695;53.480;-6.300;2023-02-18T15:09:12;101153.91;;;14.64;63.75
61537;BME280;48695;53.480;-6.300;2023-02-18T15:11:46;101154.00;;;14.61;63.45
61537;BME280;48695;53.480;-6.300;2023-02-18T15:14:19;101168.09;;;14.59;63.49
61537;BME280;48695;53.480;-6.300;2023-02-18T15:16:47;101160.28;;;14.57;63.35
61537;BME280;48695;53.480;-6.300;2023-02-18T15:19:15;101157.13;;;14.44;63.51